sensor_id;sensor_type;location;lat;lon;timestamp;pressure;altitude;pressure_sealevel;temperature;humidity
75403;BME280;63975;47.538;18.972;2022-10-13T00:00:47;99933.91;;;25.10;36.23
75403;BME280;63975;47.538;18.972;2022-10-13T00:03:49;99916.78;;;25.00;36.04
75403;BME280;63975;47.538;18.972;2022-10-13T00:06:54;99936.16;;;25.13;35.87
75403;BME280;63975;47.538;18.972;2022-10-13T00:10:00;99941.06;;;25.16;35.91
75403;BME280;63975;47.538;18.972;2022-10-13T00:13:02;99939.88;;;25.12;36.29
75403;BME280;63975;47.538;18.972;2022-10-13T00:16:06;99930.88;;;25.07;35.90
75403;BME280;63975;47.538;18.972;2022-10-13T00:19:08;99920.66;;;25.04;36.06
75403;BME280;63975;47.538;18.972;2022-10-13T00:22:16;99936.56;;;25.10;36.13
75403;BME280;63975;47.538;18.972;2022-10-13T00:25:19;99932.72;;;25.00;36.00
75403;BME280;63975;47.538;18.972;2022-10-13T00:28:23;99944.56;;;25.10;36.05
75403;BME280;63975;47.538;18.972;2022-10-13T00:31:28;99936.81;;;25.09;36.17
75403;BME280;63975;47.538;18.972;2022-10-13T00:34:30;99933.31;;;25.08;35.90
75403;BME280;63975;47.538;18.972;2022-10-13T00:37:32;99934.16;;;25.09;35.83
75403;BME280;63975;47.538;18.972;2022-10-13T00:40:48;99937.41;;;25.11;36.06
75403;BME280;63975;47.538;18.972;2022-10-13T00:43:56;99941.91;;;25.10;35.98
75403;BME280;63975;47.538;18.972;2022-10-13T00:46:59;99927.59;;;25.05;36.12
75403;BME280;63975;47.538;18.972;2022-10-13T00:50:04;99938.84;;;25.07;35.91
75403;BME280;63975;47.538;18.972;2022-10-13T00:53:09;99917.59;;;25.00;35.85
75403;BME280;63975;47.538;18.972;2022-10-13T00:56:12;99929.25;;;25.06;35.59
75403;BME280;63975;47.538;18.972;2022-10-13T00:59:25;99933.31;;;25.08;36.21
75403;BME280;63975;47.538;18.972;2022-10-13T01:02:32;99925.13;;;25.03;35.82
75403;BME280;63975;47.538;18.972;2022-10-13T01:05:38;99915.34;;;24.97;35.73
75403;BME280;63975;47.538;18.972;2022-10-13T01:08:40;99928.63;;;25.04;35.68
75403;BME280;63975;47.538;18.972;2022-10-13T01:15:09;99931.91;;;25.06;35.73
75403;BME280;63975;47.538;18.972;2022-10-13T01:18:38;99934.16;;;25.02;36.03
75403;BME280;63975;47.538;18.972;2022-10-13T01:25:11;99937.41;;;25.04;36.15
75403;BME280;63975;47.538;18.972;2022-10-13T01:31:57;99918.41;;;25.01;35.74
75403;BME280;63975;47.538;18.972;2022-10-13T01:35:14;99923.31;;;24.97;35.62
75403;BME280;63975;47.538;18.972;2022-10-13T01:41:37;99925.97;;;25.04;35.84
75403;BME280;63975;47.538;18.972;2022-10-13T01:44:44;99919.66;;;24.98;35.97
75403;BME280;63975;47.538;18.972;2022-10-13T01:47:51;99904.72;;;24.91;35.80
75403;BME280;63975;47.538;18.972;2022-10-13T01:50:55;99911.84;;;25.03;35.88
75403;BME280;63975;47.538;18.972;2022-10-13T01:53:59;99916.56;;;25.01;35.48
75403;BME280;63975;47.538;18.972;2022-10-13T01:57:02;99918.63;;;24.99;35.88
75403;BME280;63975;47.538;18.972;2022-10-13T02:00:10;99900.06;;;24.93;35.84
75403;BME280;63975;47.538;18.972;2022-10-13T02:03:35;99890.84;;;24.89;35.91
75403;BME280;63975;47.538;18.972;2022-10-13T02:06:51;99900.44;;;24.96;35.81
75403;BME280;63975;47.538;18.972;2022-10-13T02:10:15;99903.72;;;24.98;35.61
75403;BME280;63975;47.538;18.972;2022-10-13T02:13:25;99892.28;;;24.91;35.73
75403;BME280;63975;47.538;18.972;2022-10-13T02:16:33;99893.09;;;24.92;35.90
75403;BME280;63975;47.538;18.972;2022-10-13T02:19:37;99899.41;;;24.97;35.85
75403;BME280;63975;47.538;18.972;2022-10-13T02:22:44;99895.34;;;24.88;35.70
75403;BME280;63975;47.538;18.972;2022-10-13T02:25:47;99893.53;;;24.82;35.85
75403;BME280;63975;47.538;18.972;2022-10-13T02:28:51;99905.56;;;24.91;35.70
75403;BME280;63975;47.538;18.972;2022-10-13T02:31:53;99891.88;;;24.88;35.74
75403;BME280;63975;47.538;18.972;2022-10-13T02:34:55;99907.38;;;24.91;35.64
75403;BME280;63975;47.538;18.972;2022-10-13T02:37:58;99903.72;;;24.92;35.75
75403;BME280;63975;47.538;18.972;2022-10-13T02:41:01;99904.31;;;24.94;35.79
75403;BME280;63975;47.538;18.972;2022-10-13T02:44:04;99904.97;;;24.89;35.71
75403;BME280;63975;47.538;18.972;2022-10-13T02:47:14;99891.03;;;24.80;35.87
75403;BME280;63975;47.538;18.972;2022-10-13T02:50:17;99913.53;;;24.91;35.91
75403;BME280;63975;47.538;18.972;2022-10-13T02:53:19;99889.59;;;24.78;35.84
75403;BME280;63975;47.538;18.972;2022-10-13T02:56:21;99909.63;;;24.87;35.58
75403;BME280;63975;47.538;18.972;2022-10-13T02:59:23;99908.22;;;24.91;35.55
75403;BME280;63975;47.538;18.972;2022-10-13T03:02:27;99905.16;;;24.88;35.50
75403;BME280;63975;47.538;18.972;2022-10-13T03:05:29;99908.22;;;24.91;35.37
75403;BME280;63975;47.538;18.972;2022-10-13T03:08:33;99883.69;;;24.76;35.56
75403;BME280;63975;47.538;18.972;2022-10-13T03:11:35;99883.69;;;24.76;35.65
75403;BME280;63975;47.538;18.972;2022-10-13T03:14:38;99912.94;;;24.89;35.53
75403;BME280;63975;47.538;18.972;2022-10-13T03:17:40;99909.44;;;24.89;35.58
75403;BME280;63975;47.538;18.972;2022-10-13T03:20:42;99909.44;;;24.89;35.51
75403;BME280;63975;47.538;18.972;2022-10-13T03:23:44;99899.66;;;24.83;35.67
75403;BME280;63975;47.538;18.972;2022-10-13T03:26:47;99903.72;;;24.85;35.49
75403;BME280;63975;47.538;18.972;2022-10-13T03:29:50;99890.44;;;24.72;35.35
75403;BME280;63975;47.538;18.972;2022-10-13T03:32:52;99903.72;;;24.85;35.76
75403;BME280;63975;47.538;18.972;2022-10-13T03:35:58;99888.59;;;24.79;35.39
75403;BME280;63975;47.538;18.972;2022-10-13T03:39:01;99888.59;;;24.79;35.55
75403;BME280;63975;47.538;18.972;2022-10-13T03:42:03;99884.91;;;24.80;35.56
75403;BME280;63975;47.538;18.972;2022-10-13T03:45:06;99892.84;;;24.80;35.48
75403;BME280;63975;47.538;18.972;2022-10-13T03:48:09;99895.31;;;24.82;35.32
75403;BME280;63975;47.538;18.972;2022-10-13T03:51:14;99897.78;;;24.83;35.89
75403;BME280;63975;47.538;18.972;2022-10-13T03:54:19;99899.66;;;24.83;35.64
75403;BME280;63975;47.538;18.972;2022-10-13T03:57:22;99897.97;;;24.82;35.39
75403;BME280;63975;47.538;18.972;2022-10-13T04:00:24;99879.00;;;24.71;35.42
75403;BME280;63975;47.538;18.972;2022-10-13T04:03:27;99888.38;;;24.80;35.54
75403;BME280;63975;47.538;18.972;2022-10-13T04:06:29;99890.63;;;24.77;35.31
75403;BME280;63975;47.538;18.972;2022-10-13T04:09:32;99891.03;;;24.80;35.21
75403;BME280;63975;47.538;18.972;2022-10-13T04:12:34;99872.66;;;24.72;35.40
75403;BME280;63975;47.538;18.972;2022-10-13T04:15:39;99875.94;;;24.68;35.43
75403;BME280;63975;47.538;18.972;2022-10-13T04:18:42;99891.25;;;24.79;35.38
75403;BME280;63975;47.538;18.972;2022-10-13T04:21:46;99889.78;;;24.76;35.96
75403;BME280;63975;47.538;18.972;2022-10-13T04:24:48;99891.84;;;24.81;35.98
75403;BME280;63975;47.538;18.972;2022-10-13T04:27:50;99878.38;;;24.76;36.01
75403;BME280;63975;47.538;18.972;2022-10-13T04:30:52;99883.69;;;24.76;35.90
75403;BME280;63975;47.538;18.972;2022-10-13T04:33:55;99876.94;;;24.73;35.94
75403;BME280;63975;47.538;18.972;2022-10-13T04:36:57;99895.75;;;24.78;36.03
75403;BME280;63975;47.538;18.972;2022-10-13T04:39:59;99881.03;;;24.76;35.81
75403;BME280;63975;47.538;18.972;2022-10-13T04:43:26;99864.72;;;24.66;36.08
75403;BME280;63975;47.538;18.972;2022-10-13T04:46:29;99874.09;;;24.75;35.88
75403;BME280;63975;47.538;18.972;2022-10-13T04:54:17;99891.25;;;24.79;36.30
75403;BME280;63975;47.538;18.972;2022-10-13T04:57:19;99885.72;;;24.74;36.02
75403;BME280;63975;47.538;18.972;2022-10-13T05:00:22;99892.28;;;24.71;36.04
75403;BME280;63975;47.538;18.972;2022-10-13T05:03:24;99883.91;;;24.68;36.21
75403;BME280;63975;47.538;18.972;2022-10-13T05:06:38;99886.13;;;24.71;36.01
75403;BME280;63975;47.538;18.972;2022-10-13T05:10:01;99885.94;;;24.72;36.07
75403;BME280;63975;47.538;18.972;2022-10-13T05:13:03;99874.50;;;24.65;35.95
75403;BME280;63975;47.538;18.972;2022-10-13T05:16:10;99885.94;;;24.72;35.73
75403;BME280;63975;47.538;18.972;2022-10-13T05:19:12;99889.63;;;24.71;36.13
75403;BME280;63975;47.538;18.972;2022-10-13T05:22:15;99899.63;;;24.76;35.57
75403;BME280;63975;47.538;18.972;2022-10-13T05:25:17;99904.94;;;24.76;35.94
75403;BME280;63975;47.538;18.972;2022-10-13T05:28:19;99884.13;;;24.66;36.14
75403;BME280;63975;47.538;18.972;2022-10-13T05:31:23;99890.44;;;24.72;36.05
75403;BME280;63975;47.538;18.972;2022-10-13T05:34:27;99885.72;;;24.67;35.81
75403;BME280;63975;47.538;18.972;2022-10-13T05:37:29;99879.00;;;24.65;36.03
75403;BME280;63975;47.538;18.972;2022-10-13T05:40:32;99891.66;;;24.69;36.18
75403;BME280;63975;47.538;18.972;2022-10-13T05:43:35;99896.75;;;24.71;35.95
75403;BME280;63975;47.538;18.972;2022-10-13T05:46:38;99887.78;;;24.65;36.08
75403;BME280;63975;47.538;18.972;2022-10-13T05:49:40;99892.69;;;24.68;35.83
75403;BME280;63975;47.538;18.972;2022-10-13T05:52:43;99872.47;;;24.54;35.67
75403;BME280;63975;47.538;18.972;2022-10-13T05:55:45;99903.28;;;24.75;35.86
75403;BME280;63975;47.538;18.972;2022-10-13T05:58:51;99900.25;;;24.71;35.54
75403;BME280;63975;47.538;18.972;2022-10-13T06:01:55;99900.66;;;24.75;35.48
75403;BME280;63975;47.538;18.972;2022-10-13T06:05:01;99914.94;;;24.87;35.57
75403;BME280;63975;47.538;18.972;2022-10-13T06:08:04;99906.13;;;24.80;35.74
75403;BME280;63975;47.538;18.972;2022-10-13T06:11:11;99907.78;;;24.81;35.22
75403;BME280;63975;47.538;18.972;2022-10-13T06:14:14;99899.00;;;24.80;35.70
75403;BME280;63975;47.538;18.972;2022-10-13T06:21:14;99881.47;;;24.73;35.53
75403;BME280;63975;47.538;18.972;2022-10-13T06:24:20;99889.41;;;24.73;35.46
75403;BME280;63975;47.538;18.972;2022-10-13T06:27:28;99897.00;;;24.83;35.32
75403;BME280;63975;47.538;18.972;2022-10-13T06:30:36;99897.41;;;24.86;35.27
75403;BME280;63975;47.538;18.972;2022-10-13T06:33:41;99916.16;;;24.98;35.31
75403;BME280;63975;47.538;18.972;2022-10-13T06:36:44;99921.88;;;25.01;35.28
75403;BME280;63975;47.538;18.972;2022-10-13T06:39:46;99919.66;;;24.98;35.60
75403;BME280;63975;47.538;18.972;2022-10-13T06:42:49;99921.88;;;25.01;35.33
75403;BME280;63975;47.538;18.972;2022-10-13T06:45:59;99906.97;;;24.94;35.57
75403;BME280;63975;47.538;18.972;2022-10-13T06:49:04;99895.53;;;24.93;35.12
75403;BME280;63975;47.538;18.972;2022-10-13T06:52:07;99915.56;;;25.02;35.39
75403;BME280;63975;47.538;18.972;2022-10-13T06:55:10;99918.81;;;25.04;35.31
75403;BME280;63975;47.538;18.972;2022-10-13T06:58:12;99910.66;;;25.06;35.08
75403;BME280;63975;47.538;18.972;2022-10-13T07:01:27;99912.66;;;25.10;35.22
75403;BME280;63975;47.538;18.972;2022-10-13T07:04:29;99905.31;;;25.12;35.19
75403;BME280;63975;47.538;18.972;2022-10-13T07:07:33;99912.66;;;25.17;35.61
75403;BME280;63975;47.538;18.972;2022-10-13T07:10:39;99907.75;;;25.14;36.07
75403;BME280;63975;47.538;18.972;2022-10-13T07:13:42;99897.94;;;25.14;35.88
75403;BME280;63975;47.538;18.972;2022-10-13T07:16:49;99894.06;;;25.10;35.64
75403;BME280;63975;47.538;18.972;2022-10-13T07:24:22;99903.66;;;25.18;35.65
75403;BME280;63975;47.538;18.972;2022-10-13T07:27:24;99916.34;;;25.22;35.48
75403;BME280;63975;47.538;18.972;2022-10-13T07:30:27;99891.81;;;25.07;35.78
75403;BME280;63975;47.538;18.972;2022-10-13T07:33:29;99914.47;;;25.23;35.67
75403;BME280;63975;47.538;18.972;2022-10-13T07:36:32;99907.13;;;25.18;35.59
75403;BME280;63975;47.538;18.972;2022-10-13T07:39:34;99908.97;;;25.24;35.58
75403;BME280;63975;47.538;18.972;2022-10-13T07:42:36;99910.78;;;25.24;35.70
75403;BME280;63975;47.538;18.972;2022-10-13T07:45:39;99876.72;;;25.01;35.85
75403;BME280;63975;47.538;18.972;2022-10-13T07:48:41;99884.25;;;25.11;35.92
75403;BME280;63975;47.538;18.972;2022-10-13T07:51:43;99896.94;;;25.15;35.74
75403;BME280;63975;47.538;18.972;2022-10-13T07:54:46;99894.47;;;25.14;36.25
75403;BME280;63975;47.538;18.972;2022-10-13T07:57:48;99914.44;;;25.29;36.24
75403;BME280;63975;47.538;18.972;2022-10-13T08:00:57;99897.31;;;25.25;36.44
75403;BME280;63975;47.538;18.972;2022-10-13T08:04:00;99917.50;;;25.33;36.19
75403;BME280;63975;47.538;18.972;2022-10-13T08:07:06;99896.09;;;25.21;36.28
75403;BME280;63975;47.538;18.972;2022-10-13T08:10:08;99909.75;;;25.32;36.34
75403;BME280;63975;47.538;18.972;2022-10-13T08:13:11;99907.50;;;25.35;36.48
75403;BME280;63975;47.538;18.972;2022-10-13T08:16:15;99897.88;;;25.34;36.38
75403;BME280;63975;47.538;18.972;2022-10-13T08:19:17;99896.66;;;25.30;37.08
75403;BME280;63975;47.538;18.972;2022-10-13T08:22:21;99892.41;;;25.29;36.82
75403;BME280;63975;47.538;18.972;2022-10-13T08:25:29;99899.09;;;25.38;37.06
75403;BME280;63975;47.538;18.972;2022-10-13T08:28:37;99892.75;;;25.33;37.88
75403;BME280;63975;47.538;18.972;2022-10-13T08:31:40;99900.34;;;25.36;37.30
75403;BME280;63975;47.538;18.972;2022-10-13T08:34:43;99895.63;;;25.38;37.05
75403;BME280;63975;47.538;18.972;2022-10-13T08:37:53;99890.72;;;25.35;36.64
75403;BME280;63975;47.538;18.972;2022-10-13T08:40:58;99888.66;;;25.37;36.45
75403;BME280;63975;47.538;18.972;2022-10-13T08:44:20;99891.31;;;25.37;35.92
75403;BME280;63975;47.538;18.972;2022-10-13T08:50:50;99868.50;;;25.22;35.47
75403;BME280;63975;47.538;18.972;2022-10-13T08:53:55;99857.88;;;25.16;35.37
75403;BME280;63975;47.538;18.972;2022-10-13T08:57:00;99881.13;;;25.34;35.36
75403;BME280;63975;47.538;18.972;2022-10-13T09:00:11;99878.25;;;25.35;35.05
75403;BME280;63975;47.538;18.972;2022-10-13T09:03:22;99858.66;;;25.23;35.73
75403;BME280;63975;47.538;18.972;2022-10-13T09:06:28;99866.59;;;25.29;35.70
75403;BME280;63975;47.538;18.972;2022-10-13T09:09:59;99872.72;;;25.37;35.81
75403;BME280;63975;47.538;18.972;2022-10-13T09:13:02;99853.16;;;25.24;35.44
75403;BME280;63975;47.538;18.972;2022-10-13T09:16:04;99874.97;;;25.33;35.30
75403;BME280;63975;47.538;18.972;2022-10-13T09:22:36;99872.50;;;25.45;35.30
75403;BME280;63975;47.538;18.972;2022-10-13T09:25:42;99871.88;;;25.43;35.06
75403;BME280;63975;47.538;18.972;2022-10-13T09:28:44;99850.66;;;25.29;35.08
75403;BME280;63975;47.538;18.972;2022-10-13T09:31:47;99871.25;;;25.47;35.19
75403;BME280;63975;47.538;18.972;2022-10-13T09:34:49;99865.53;;;25.50;35.33
75403;BME280;63975;47.538;18.972;2022-10-13T09:38:03;99861.25;;;25.36;35.33
75403;BME280;63975;47.538;18.972;2022-10-13T09:41:33;99864.38;;;25.26;35.22
75403;BME280;63975;47.538;18.972;2022-10-13T09:45:18;99820.91;;;25.08;35.03
75403;BME280;63975;47.538;18.972;2022-10-13T09:48:55;99853.97;;;25.25;34.82
75403;BME280;63975;47.538;18.972;2022-10-13T09:52:23;99860.06;;;25.39;34.81
75403;BME280;63975;47.538;18.972;2022-10-13T09:55:32;99835.38;;;25.25;35.10
75403;BME280;63975;47.538;18.972;2022-10-13T09:59:00;99851.69;;;25.35;35.18
75403;BME280;63975;47.538;18.972;2022-10-13T10:02:32;99859.81;;;25.40;35.34
75403;BME280;63975;47.538;18.972;2022-10-13T10:11:08;99845.72;;;25.40;34.82
75403;BME280;63975;47.538;18.972;2022-10-13T10:14:38;99847.78;;;25.38;34.71
75403;BME280;63975;47.538;18.972;2022-10-13T10:25:22;99838.56;;;25.40;35.55
75403;BME280;63975;47.538;18.972;2022-10-13T10:39:50;99806.50;;;25.35;36.33
75403;BME280;63975;47.538;18.972;2022-10-13T10:50:33;99803.56;;;25.50;36.97
75403;BME280;63975;47.538;18.972;2022-10-13T10:53:54;99788.28;;;25.39;37.39
75403;BME280;63975;47.538;18.972;2022-10-13T11:01:30;99784.53;;;25.46;37.63
75403;BME280;63975;47.538;18.972;2022-10-13T11:05:23;99747.22;;;25.28;37.25
75403;BME280;63975;47.538;18.972;2022-10-13T11:19:39;99776.94;;;25.56;36.77
75403;BME280;63975;47.538;18.972;2022-10-13T11:26:30;99759.53;;;25.60;37.43
75403;BME280;63975;47.538;18.972;2022-10-13T11:32:48;99758.50;;;25.61;37.30
75403;BME280;63975;47.538;18.972;2022-10-13T11:36:29;99750.53;;;25.61;37.13
75403;BME280;63975;47.538;18.972;2022-10-13T12:03:43;99707.84;;;25.50;35.76
75403;BME280;63975;47.538;18.972;2022-10-13T12:07:20;99718.25;;;25.58;35.10
75403;BME280;63975;47.538;18.972;2022-10-13T12:10:45;99694.75;;;25.48;35.55
75403;BME280;63975;47.538;18.972;2022-10-13T12:13:57;99700.91;;;25.49;35.56
75403;BME280;63975;47.538;18.972;2022-10-13T12:20:28;99668.84;;;25.37;35.56
75403;BME280;63975;47.538;18.972;2022-10-13T12:24:05;99699.78;;;25.63;35.50
75403;BME280;63975;47.538;18.972;2022-10-13T12:27:19;99681.88;;;25.52;35.42
75403;BME280;63975;47.538;18.972;2022-10-13T12:34:39;99670.44;;;25.51;35.67
75403;BME280;63975;47.538;18.972;2022-10-13T12:37:46;99672.22;;;25.57;35.47
75403;BME280;63975;47.538;18.972;2022-10-13T12:40:50;99657.75;;;25.47;35.36
75403;BME280;63975;47.538;18.972;2022-10-13T12:43:54;99667.78;;;25.51;35.50
75403;BME280;63975;47.538;18.972;2022-10-13T12:51:38;99664.81;;;25.59;35.36
75403;BME280;63975;47.538;18.972;2022-10-13T12:54:53;99645.84;;;25.49;35.43
75403;BME280;63975;47.538;18.972;2022-10-13T13:10:15;99675.19;;;25.67;37.29
75403;BME280;63975;47.538;18.972;2022-10-13T13:13:31;99661.03;;;25.49;37.64
75403;BME280;63975;47.538;18.972;2022-10-13T13:17:25;99671.34;;;25.63;37.81
75403;BME280;63975;47.538;18.972;2022-10-13T13:20:48;99651.91;;;25.63;37.58
75403;BME280;63975;47.538;18.972;2022-10-13T13:24:16;99663.31;;;25.70;37.25
75403;BME280;63975;47.538;18.972;2022-10-13T13:27:47;99648.66;;;25.61;37.08
75403;BME280;63975;47.538;18.972;2022-10-13T13:30:53;99618.16;;;25.39;37.42
75403;BME280;63975;47.538;18.972;2022-10-13T13:33:56;99651.28;;;25.67;37.41
75403;BME280;63975;47.538;18.972;2022-10-13T13:37:56;99652.22;;;25.73;37.22
75403;BME280;63975;47.538;18.972;2022-10-13T13:41:03;99594.38;;;25.44;37.08
75403;BME280;63975;47.538;18.972;2022-10-13T13:44:12;99620.06;;;25.56;36.87
75403;BME280;63975;47.538;18.972;2022-10-13T13:47:18;99641.44;;;25.68;36.84
75403;BME280;63975;47.538;18.972;2022-10-13T13:50:27;99600.28;;;25.46;36.48
75403;BME280;63975;47.538;18.972;2022-10-13T13:53:39;99598.41;;;25.53;36.35
75403;BME280;63975;47.538;18.972;2022-10-13T14:01:41;99630.13;;;25.72;36.81
75403;BME280;63975;47.538;18.972;2022-10-13T14:04:44;99641.53;;;25.79;36.87
75403;BME280;63975;47.538;18.972;2022-10-13T14:07:47;99634.94;;;25.64;37.27
75403;BME280;63975;47.538;18.972;2022-10-13T14:10:50;99623.41;;;25.45;36.88
75403;BME280;63975;47.538;18.972;2022-10-13T14:13:52;99646.00;;;25.61;37.07
75403;BME280;63975;47.538;18.972;2022-10-13T14:17:01;99628.59;;;25.65;36.89
75403;BME280;63975;47.538;18.972;2022-10-13T14:20:05;99639.97;;;25.72;36.88
75403;BME280;63975;47.538;18.972;2022-10-13T14:23:11;99629.31;;;25.72;35.96
75403;BME280;63975;47.538;18.972;2022-10-13T14:26:14;99626.84;;;25.77;35.84
75403;BME280;63975;47.538;18.972;2022-10-13T14:29:16;99618.28;;;25.75;35.72
75403;BME280;63975;47.538;18.972;2022-10-13T14:32:19;99634.94;;;25.82;35.93
75403;BME280;63975;47.538;18.972;2022-10-13T14:35:21;99623.16;;;25.78;35.51
75403;BME280;63975;47.538;18.972;2022-10-13T14:38:23;99628.84;;;25.82;36.05
75403;BME280;63975;47.538;18.972;2022-10-13T14:41:26;99610.28;;;25.75;35.73
75403;BME280;63975;47.538;18.972;2022-10-13T14:44:28;99619.81;;;25.83;35.90
75403;BME280;63975;47.538;18.972;2022-10-13T14:47:30;99621.66;;;25.82;35.88
75403;BME280;63975;47.538;18.972;2022-10-13T14:50:32;99628.63;;;25.83;35.90
75403;BME280;63975;47.538;18.972;2022-10-13T14:53:39;99627.59;;;25.84;36.03
75403;BME280;63975;47.538;18.972;2022-10-13T14:56:42;99630.25;;;25.84;35.88
75403;BME280;63975;47.538;18.972;2022-10-13T14:59:45;99613.31;;;25.78;36.24
75403;BME280;63975;47.538;18.972;2022-10-13T15:02:48;99625.75;;;25.85;35.91
75403;BME280;63975;47.538;18.972;2022-10-13T15:05:50;99615.31;;;25.83;36.06
75403;BME280;63975;47.538;18.972;2022-10-13T15:08:57;99610.22;;;25.82;36.33
75403;BME280;63975;47.538;18.972;2022-10-13T15:12:00;99619.16;;;25.87;36.64
75403;BME280;63975;47.538;18.972;2022-10-13T15:15:02;99599.78;;;25.80;37.09
75403;BME280;63975;47.538;18.972;2022-10-13T15:18:05;99616.63;;;25.74;38.20
75403;BME280;63975;47.538;18.972;2022-10-13T15:21:07;99616.56;;;25.80;39.04
75403;BME280;63975;47.538;18.972;2022-10-13T15:24:10;99616.34;;;25.82;38.89
75403;BME280;63975;47.538;18.972;2022-10-13T15:27:12;99611.47;;;25.79;39.16
75403;BME280;63975;47.538;18.972;2022-10-13T15:30:14;99618.78;;;25.84;39.24
75403;BME280;63975;47.538;18.972;2022-10-13T15:33:17;99627.78;;;25.83;39.65
75403;BME280;63975;47.538;18.972;2022-10-13T15:36:21;99620.88;;;25.82;39.77
75403;BME280;63975;47.538;18.972;2022-10-13T15:39:23;99600.31;;;25.70;39.47
75403;BME280;63975;47.538;18.972;2022-10-13T15:42:26;99620.13;;;25.74;39.05
75403;BME280;63975;47.538;18.972;2022-10-13T15:45:28;99618.28;;;25.75;38.36
75403;BME280;63975;47.538;18.972;2022-10-13T15:48:31;99619.28;;;25.74;38.62
75403;BME280;63975;47.538;18.972;2022-10-13T15:51:34;99594.22;;;25.63;38.29
75403;BME280;63975;47.538;18.972;2022-10-13T15:54:36;99606.44;;;25.71;37.77
75403;BME280;63975;47.538;18.972;2022-10-13T15:57:38;99616.19;;;25.77;38.09
75403;BME280;63975;47.538;18.972;2022-10-13T16:00:41;99614.34;;;25.77;37.80
75403;BME280;63975;47.538;18.972;2022-10-13T16:03:43;99601.19;;;25.64;37.90
75403;BME280;63975;47.538;18.972;2022-10-13T16:06:46;99616.19;;;25.77;37.54
75403;BME280;63975;47.538;18.972;2022-10-13T16:09:48;99616.19;;;25.77;37.76
75403;BME280;63975;47.538;18.972;2022-10-13T16:12:50;99612.13;;;25.74;37.57
75403;BME280;63975;47.538;18.972;2022-10-13T16:15:57;99604.81;;;25.70;37.40
75403;BME280;63975;47.538;18.972;2022-10-13T16:19:00;99606.00;;;25.74;37.50
75403;BME280;63975;47.538;18.972;2022-10-13T16:22:02;99610.50;;;25.73;37.70
75403;BME280;63975;47.538;18.972;2022-10-13T16:25:05;99610.28;;;25.75;37.70
75403;BME280;63975;47.538;18.972;2022-10-13T16:28:07;99607.25;;;25.71;37.60
75403;BME280;63975;47.538;18.972;2022-10-13T16:31:13;99606.25;;;25.66;37.53
75403;BME280;63975;47.538;18.972;2022-10-13T16:34:16;99602.59;;;25.67;37.39
75403;BME280;63975;47.538;18.972;2022-10-13T16:37:18;99615.69;;;25.68;37.52
75403;BME280;63975;47.538;18.972;2022-10-13T16:40:21;99623.78;;;25.73;37.63
75403;BME280;63975;47.538;18.972;2022-10-13T16:43:23;99612.78;;;25.70;37.73
75403;BME280;63975;47.538;18.972;2022-10-13T16:46:27;99592.88;;;25.54;37.43
75403;BME280;63975;47.538;18.972;2022-10-13T16:49:30;99603.28;;;25.56;37.29
75403;BME280;63975;47.538;18.972;2022-10-13T16:52:33;99595.97;;;25.51;37.26
75403;BME280;63975;47.538;18.972;2022-10-13T16:55:38;99623.84;;;25.67;37.34
75403;BME280;63975;47.538;18.972;2022-10-13T16:58:41;99612.25;;;25.61;37.54
75403;BME280;63975;47.538;18.972;2022-10-13T17:01:46;99602.31;;;25.50;37.19
75403;BME280;63975;47.538;18.972;2022-10-13T17:04:49;99622.66;;;25.63;37.32
75403;BME280;63975;47.538;18.972;2022-10-13T17:07:51;99631.69;;;25.62;37.39
75403;BME280;63975;47.538;18.972;2022-10-13T17:10:54;99611.53;;;25.48;37.01
75403;BME280;63975;47.538;18.972;2022-10-13T17:13:59;99631.06;;;25.60;37.21
75403;BME280;63975;47.538;18.972;2022-10-13T17:17:05;99630.25;;;25.59;37.29
75403;BME280;63975;47.538;18.972;2022-10-13T17:20:08;99621.94;;;25.49;37.10
75403;BME280;63975;47.538;18.972;2022-10-13T17:23:14;99632.78;;;25.54;37.14
75403;BME280;63975;47.538;18.972;2022-10-13T17:26:18;99618.88;;;25.46;37.22
75403;BME280;63975;47.538;18.972;2022-10-13T17:29:22;99630.31;;;25.53;37.20
75403;BME280;63975;47.538;18.972;2022-10-13T17:32:27;99619.50;;;25.48;36.99
75403;BME280;63975;47.538;18.972;2022-10-13T17:35:30;99608.09;;;25.41;37.09
75403;BME280;63975;47.538;18.972;2022-10-13T17:38:33;99622.34;;;25.53;36.84
75403;BME280;63975;47.538;18.972;2022-10-13T17:41:36;99627.88;;;25.51;36.97
75403;BME280;63975;47.538;18.972;2022-10-13T17:44:38;99611.97;;;25.45;36.85
75403;BME280;63975;47.538;18.972;2022-10-13T17:47:49;99621.94;;;25.49;36.88
75403;BME280;63975;47.538;18.972;2022-10-13T17:50:51;99629.31;;;25.47;36.84
75403;BME280;63975;47.538;18.972;2022-10-13T17:53:54;99625.03;;;25.46;36.75
75403;BME280;63975;47.538;18.972;2022-10-13T17:56:56;99610.97;;;25.39;36.83
75403;BME280;63975;47.538;18.972;2022-10-13T17:59:58;99618.09;;;25.45;36.61
75403;BME280;63975;47.538;18.972;2022-10-13T18:03:00;99618.88;;;25.46;37.02
75403;BME280;63975;47.538;18.972;2022-10-13T18:06:05;99626.06;;;25.45;36.76
75403;BME280;63975;47.538;18.972;2022-10-13T18:09:14;99620.13;;;25.43;36.73
75403;BME280;63975;47.538;18.972;2022-10-13T18:12:17;99618.16;;;25.39;36.68
75403;BME280;63975;47.538;18.972;2022-10-13T18:15:20;99618.16;;;25.39;36.67
75403;BME280;63975;47.538;18.972;2022-10-13T18:18:22;99621.41;;;25.41;36.55
75403;BME280;63975;47.538;18.972;2022-10-13T18:21:25;99611.03;;;25.33;36.75
75403;BME280;63975;47.538;18.972;2022-10-13T18:24:27;99615.50;;;25.39;36.68
75403;BME280;63975;47.538;18.972;2022-10-13T18:27:30;99607.56;;;25.32;36.71
75403;BME280;63975;47.538;18.972;2022-10-13T18:30:32;99617.34;;;25.38;36.76
75403;BME280;63975;47.538;18.972;2022-10-13T18:33:35;99611.03;;;25.33;36.47
75403;BME280;63975;47.538;18.972;2022-10-13T18:36:43;99609.41;;;25.32;36.57